Kezdőlap
METAR-TAF:

METAR-TAF

Repülőterek :

Jacksons nemzetközi repülőtér

Port Moresby, Pápua Új-Guinea

földrajzi szélesség: 09-26S, földrajzi hosszúság: 147-13E, magasság: 38 m

Jelenlegi meteorológiai megfigyelések

A jelentés 1 órával és 29 perccel ezelõtt készült, 05:00 UTC
Dél-délkeleti szél 15 kt széllökések: 20 kt
Hőmérséklet 31°C
Páratartalom 63%
Légköri nyomás 1007 hPa
Látótávolság 10 km, vagy több
Szórványos felhőzet 3500 lábon

METAR: AYPY 210500Z 16015G20KT 9999 FUHZ SCT035 31/23 Q1007

Idő: 16:29 (06:29 UTC)

Előrejelzés

A jelentés 8 órával és 29 perccel ezelõtt készült, 22:00 UTC
Az előrejelzés 21-én 00 óra UTC és 22-én 00 óra UTC között érvényes
Dél-délkeleti szél 10 kt
Látótávolság 10 km, vagy több
Szórványos felhőzet 1800 lábon
Szórványos felhőzet 14000 lábon

TAF: AYPY 202200Z 2100/2200 16010KT 9999 SCT018 SCT140

Meteorológiai megfigyelések és előrejelzések több, mint 4000 repülőtéren (METAR és TAF jelentéseket).

A térképen piros és sárga pontok jelzik az elérhető meteorológiai állomásokat.

Mozgassa az egeret a pont fölött, hogy megjelenjen az állomás neve.

Azután kattintson az időjárási megfigyelések és előrejelzések megtekintéséhez.

A térkép megváltoztatása: kattintson a fekete keresztel jelölt zöld gombra ráközelítéshez, a vonallal jelölt zöld gombra távolításhoz, vagy a zöld nyilakra a szomszédos térképek eléréséhez.


METAR-TAF: